Terminal Aerodrome Forecast
Issued by NWS Twin Cities, MN

Home | Current Version | Previous Version | Text Only | Print | Product List | Glossary Off
Versions: 1 2 3 4 5 6 7 8 9 10 11 12 13 14 15 16 17 18 19 20 21 22 23 24 25 26 27

000
FTUS43 KMPX 211100
TAFMSP
TAF
KMSP 211139Z 2112/2218 09006KT P6SM SKC
     FM211800 12011KT P6SM SKC
     FM220000 14008KT P6SM SKC
     FM221400 15011KT P6SM SCT250=

USA.gov is the U.S. government's official web portal to all federal, state and local government web resources and services.